createdAt,value
2018-02-09T00:00:56.059Z,101794
2018-02-09T00:03:24.226Z,101802
2018-02-09T00:05:52.475Z,101786
2018-02-09T00:08:21.444Z,101785
2018-02-09T00:10:49.598Z,101777
2018-02-09T00:13:17.922Z,101772
2018-02-09T00:15:46.870Z,101786
2018-02-09T00:18:15.029Z,101778
2018-02-09T00:20:43.219Z,101778
2018-02-09T00:23:11.395Z,101785
2018-02-09T00:25:39.640Z,101784
2018-02-09T00:28:07.812Z,101783
2018-02-09T00:30:36.020Z,101781
2018-02-09T00:33:04.398Z,101784
2018-02-09T00:35:32.637Z,101789
2018-02-09T00:38:00.811Z,101791
2018-02-09T00:40:29.046Z,101785
2018-02-09T00:42:58.266Z,101786
2018-02-09T00:45:26.442Z,101778
2018-02-09T00:47:54.627Z,101776
2018-02-09T00:50:22.787Z,101780
2018-02-09T00:52:51.003Z,101780
2018-02-09T00:55:19.144Z,101774
2018-02-09T00:57:47.428Z,101777
2018-02-09T01:00:15.585Z,101773
2018-02-09T01:02:43.846Z,101767
2018-02-09T01:05:12.080Z,101774
2018-02-09T01:07:40.386Z,101772
2018-02-09T01:10:08.603Z,101762
2018-02-09T01:12:36.839Z,101771
2018-02-09T01:15:05.083Z,101774
2018-02-09T01:17:34.054Z,101764
2018-02-09T01:20:02.267Z,101766
2018-02-09T01:22:30.456Z,101761
2018-02-09T01:24:58.700Z,101763
2018-02-09T01:27:26.946Z,101755
2018-02-09T01:29:55.159Z,101761
2018-02-09T01:32:24.297Z,101766
2018-02-09T01:34:52.518Z,101768
2018-02-09T01:37:20.676Z,101759
2018-02-09T01:39:49.677Z,101771
2018-02-09T01:42:17.900Z,101758
2018-02-09T01:44:46.089Z,101748
2018-02-09T01:47:14.350Z,101753
2018-02-09T01:49:42.554Z,101752
2018-02-09T01:52:10.774Z,101745
2018-02-09T01:54:38.948Z,101740
2018-02-09T01:57:07.217Z,101740
2018-02-09T01:59:35.453Z,101737
2018-02-09T02:02:03.690Z,101736
2018-02-09T02:04:31.886Z,101735
2018-02-09T02:07:00.197Z,101737
2018-02-09T02:09:29.320Z,101734
2018-02-09T02:11:58.294Z,101735
2018-02-09T02:14:27.235Z,101728
2018-02-09T02:16:55.416Z,101730
2018-02-09T02:19:23.683Z,101732
2018-02-09T02:21:52.458Z,101723
2018-02-09T02:24:21.462Z,101725
2018-02-09T02:26:49.759Z,101723
2018-02-09T02:29:17.961Z,101718
2018-02-09T02:31:46.918Z,101721
2018-02-09T02:34:15.092Z,101715
2018-02-09T02:36:43.246Z,101714
2018-02-09T02:39:11.552Z,101709
2018-02-09T02:41:39.754Z,101707
2018-02-09T02:44:08.750Z,101708
2018-02-09T02:51:24.012Z,101702
2018-02-09T02:53:52.187Z,101695
2018-02-09T02:58:58.897Z,101683
2018-02-09T03:01:27.106Z,101685
2018-02-09T03:03:55.270Z,101682
2018-02-09T03:06:23.787Z,101681
2018-02-09T03:08:51.927Z,101674
2018-02-09T03:11:20.126Z,101671
2018-02-09T03:13:48.383Z,101663
2018-02-09T03:16:16.679Z,101660
2018-02-09T03:18:45.014Z,101660
2018-02-09T03:21:13.263Z,101664
2018-02-09T03:23:41.482Z,101658
2018-02-09T03:26:09.638Z,101652
2018-02-09T03:28:37.808Z,101652
2018-02-09T03:31:05.958Z,101660
2018-02-09T03:33:35.662Z,101648
2018-02-09T03:36:03.854Z,101653
2018-02-09T03:38:32.195Z,101653
2018-02-09T03:41:00.479Z,101643
2018-02-09T03:43:28.638Z,101645
2018-02-09T03:45:56.847Z,101643
2018-02-09T03:48:25.996Z,101639
2018-02-09T03:50:54.233Z,101626
2018-02-09T03:53:23.332Z,101628
2018-02-09T03:55:51.494Z,101622
2018-02-09T03:58:20.446Z,101620
2018-02-09T04:00:48.597Z,101608
2018-02-09T04:03:16.837Z,101614
2018-02-09T04:05:45.815Z,101619
2018-02-09T04:08:14.839Z,101622
2018-02-09T04:10:43.012Z,101621
2018-02-09T04:13:12.226Z,101632
2018-02-09T04:15:40.402Z,101624
2018-02-09T04:18:08.664Z,101622
2018-02-09T04:20:36.842Z,101625
2018-02-09T04:23:05.162Z,101621
2018-02-09T04:25:33.345Z,101618
2018-02-09T04:28:01.604Z,101613
2018-02-09T04:30:29.772Z,101606
2018-02-09T04:32:58.125Z,101604
2018-02-09T04:35:26.302Z,101604
2018-02-09T04:37:54.515Z,101606
2018-02-09T04:40:22.797Z,101599
2018-02-09T04:42:51.794Z,101602
2018-02-09T04:45:26.261Z,101591
2018-02-09T04:47:54.441Z,101587
2018-02-09T04:50:22.599Z,101586
2018-02-09T04:52:50.921Z,101583
2018-02-09T04:55:19.861Z,101586
2018-02-09T04:57:48.464Z,101579
2018-02-09T05:00:16.655Z,101574
2018-02-09T05:02:44.947Z,101582
2018-02-09T05:05:13.113Z,101585
2018-02-09T05:07:41.350Z,101584
2018-02-09T05:10:09.599Z,101585
2018-02-09T05:12:37.840Z,101589
2018-02-09T05:15:06.055Z,101583
2018-02-09T05:17:34.398Z,101579
2018-02-09T05:20:03.403Z,101587
2018-02-09T05:22:31.676Z,101577
2018-02-09T05:25:00.642Z,101574
2018-02-09T05:27:28.936Z,101581
2018-02-09T05:29:57.874Z,101572
2018-02-09T05:32:26.055Z,101577
2018-02-09T05:34:54.272Z,101570
2018-02-09T05:37:24.689Z,101568
2018-02-09T05:39:53.168Z,101569
2018-02-09T05:42:21.547Z,101569
2018-02-09T05:44:50.524Z,101570
2018-02-09T05:47:19.658Z,101569
2018-02-09T05:49:48.584Z,101565
2018-02-09T05:52:16.771Z,101562
2018-02-09T05:54:44.930Z,101561
2018-02-09T05:57:13.119Z,101552
2018-02-09T05:59:41.376Z,101554
2018-02-09T06:02:11.185Z,101550
2018-02-09T06:04:39.475Z,101546
2018-02-09T06:07:07.667Z,101550
2018-02-09T06:09:35.870Z,101547
2018-02-09T06:12:04.834Z,101553
2018-02-09T06:14:33.047Z,101553
2018-02-09T06:17:01.273Z,101547
2018-02-09T06:19:29.517Z,101543
2018-02-09T06:21:58.573Z,101542
2018-02-09T06:24:27.561Z,101541
2018-02-09T06:26:56.515Z,101538
2018-02-09T06:29:24.759Z,101539
2018-02-09T06:31:53.025Z,101535
2018-02-09T06:34:21.760Z,101527
2018-02-09T06:36:53.694Z,101523
2018-02-09T06:39:29.469Z,101528
2018-02-09T06:41:57.652Z,101533
2018-02-09T06:44:27.292Z,101527
2018-02-09T06:46:55.538Z,101530
2018-02-09T06:49:23.796Z,101525
2018-02-09T06:51:52.020Z,101525
2018-02-09T06:54:20.258Z,101531
2018-02-09T06:56:48.563Z,101536
2018-02-09T06:59:16.737Z,101528
2018-02-09T07:01:45.780Z,101526
2018-02-09T07:04:14.385Z,101527
2018-02-09T07:06:42.564Z,101526
2018-02-09T07:09:11.595Z,101530
2018-02-09T07:11:39.926Z,101532
2018-02-09T07:14:08.892Z,101536
2018-02-09T07:16:37.082Z,101530
2018-02-09T07:19:06.118Z,101527
2018-02-09T07:21:34.673Z,101528
2018-02-09T07:24:02.946Z,101522
2018-02-09T07:26:31.366Z,101532
2018-02-09T07:29:03.901Z,101527
2018-02-09T07:31:33.195Z,101529
2018-02-09T07:34:01.623Z,101526
2018-02-09T07:36:30.613Z,101522
2018-02-09T07:39:01.306Z,101524
2018-02-09T07:41:30.509Z,101521
2018-02-09T07:43:59.298Z,101521
2018-02-09T07:46:27.685Z,101523
2018-02-09T07:48:59.225Z,101527
2018-02-09T07:51:28.316Z,101528
2018-02-09T07:53:57.273Z,101525
2018-02-09T07:56:25.545Z,101521
2018-02-09T07:58:53.703Z,101520
2018-02-09T08:01:21.931Z,101513
2018-02-09T08:03:50.118Z,101526
2018-02-09T08:06:18.374Z,101523
2018-02-09T08:08:47.367Z,101519
2018-02-09T08:11:15.697Z,101521
2018-02-09T08:13:45.746Z,101510
2018-02-09T08:16:14.303Z,101510
2018-02-09T08:18:43.397Z,101509
2018-02-09T08:21:13.208Z,101508
2018-02-09T08:23:41.515Z,101516
2018-02-09T08:26:09.803Z,101507
2018-02-09T08:28:38.771Z,101506
2018-02-09T08:31:06.949Z,101509
2018-02-09T08:33:36.192Z,101499
2018-02-09T08:36:04.713Z,101504
2018-02-09T08:38:32.975Z,101506
2018-02-09T08:41:02.138Z,101503
2018-02-09T08:43:30.455Z,101498
2018-02-09T08:45:58.717Z,101495
2018-02-09T08:48:26.950Z,101509
2018-02-09T08:50:56.435Z,101517
2018-02-09T08:53:24.979Z,101519
2018-02-09T08:55:54.947Z,101501
2018-02-09T08:58:23.963Z,101512
2018-02-09T09:00:53.223Z,101504
2018-02-09T09:03:21.515Z,101509
2018-02-09T09:05:50.557Z,101510
2018-02-09T09:08:18.946Z,101500
2018-02-09T09:10:47.236Z,101504
2018-02-09T09:13:15.436Z,101508
2018-02-09T09:15:44.430Z,101502
2018-02-09T09:18:13.443Z,101501
2018-02-09T09:20:41.689Z,101503
2018-02-09T09:23:09.928Z,101504
2018-02-09T09:25:38.182Z,101497
2018-02-09T09:28:06.386Z,101500
2018-02-09T09:30:34.654Z,101496
2018-02-09T09:33:02.891Z,101484
2018-02-09T09:35:31.151Z,101495
2018-02-09T09:37:59.474Z,101489
2018-02-09T09:40:27.972Z,101483
2018-02-09T09:42:57.014Z,101488
2018-02-09T09:45:25.206Z,101482
2018-02-09T09:50:28.277Z,101475
2018-02-09T09:52:56.571Z,101476
2018-02-09T09:55:24.785Z,101475
2018-02-09T09:57:53.036Z,101474
2018-02-09T10:00:21.245Z,101469
2018-02-09T10:02:49.519Z,101464
2018-02-09T10:05:17.860Z,101470
2018-02-09T10:07:46.152Z,101460
2018-02-09T10:10:14.289Z,101461
2018-02-09T10:12:42.575Z,101461
2018-02-09T10:15:10.795Z,101459
2018-02-09T10:17:39.080Z,101450
2018-02-09T10:20:07.330Z,101451
2018-02-09T10:22:35.560Z,101447
2018-02-09T10:25:04.611Z,101450
2018-02-09T10:27:32.891Z,101447
2018-02-09T10:30:01.110Z,101449
2018-02-09T10:32:29.340Z,101448
2018-02-09T10:34:57.563Z,101445
2018-02-09T10:37:25.720Z,101445
2018-02-09T10:39:54.034Z,101436
2018-02-09T10:42:22.267Z,101435
2018-02-09T10:44:51.258Z,101434
2018-02-09T10:47:21.824Z,101430
2018-02-09T10:49:50.022Z,101423
2018-02-09T10:52:18.203Z,101423
2018-02-09T10:54:46.588Z,101420
2018-02-09T10:57:14.765Z,101415
2018-02-09T10:59:43.007Z,101410
2018-02-09T11:02:11.260Z,101412
2018-02-09T11:04:39.469Z,101415
2018-02-09T11:07:08.444Z,101416
2018-02-09T11:09:36.661Z,101415
2018-02-09T11:12:07.441Z,101409
2018-02-09T11:14:35.606Z,101405
2018-02-09T11:17:03.828Z,101406
2018-02-09T11:19:32.110Z,101400
2018-02-09T11:22:01.125Z,101392
2018-02-09T11:24:30.103Z,101401
2018-02-09T11:26:59.342Z,101397
2018-02-09T11:29:27.523Z,101395
2018-02-09T11:31:55.729Z,101385
2018-02-09T11:34:23.908Z,101383
2018-02-09T11:36:52.082Z,101382
2018-02-09T11:39:20.382Z,101375
2018-02-09T11:41:49.452Z,101367
2018-02-09T11:44:17.645Z,101369
2018-02-09T11:46:46.628Z,101373
2018-02-09T11:49:15.621Z,101370
2018-02-09T11:51:44.631Z,101373
2018-02-09T11:54:12.882Z,101368
2018-02-09T11:56:41.173Z,101369
2018-02-09T11:59:10.149Z,101368
2018-02-09T12:01:38.352Z,101367
2018-02-09T12:04:06.589Z,101365
2018-02-09T12:06:34.748Z,101361
2018-02-09T12:09:03.079Z,101358
2018-02-09T12:11:31.374Z,101363
2018-02-09T12:14:00.110Z,101360
2018-02-09T12:16:29.272Z,101355
2018-02-09T12:18:57.518Z,101357
2018-02-09T12:21:25.791Z,101361
2018-02-09T12:23:54.035Z,101347
2018-02-09T12:26:23.030Z,101357
2018-02-09T12:28:52.119Z,101346
2018-02-09T12:31:21.180Z,101331
2018-02-09T12:33:49.387Z,101334
2018-02-09T12:36:18.359Z,101340
2018-02-09T12:38:46.605Z,101333
2018-02-09T12:41:15.720Z,101326
2018-02-09T12:43:43.899Z,101323
2018-02-09T12:46:12.135Z,101327
2018-02-09T12:48:40.379Z,101325
2018-02-09T12:51:09.611Z,101322
2018-02-09T12:53:38.576Z,101320
2018-02-09T12:56:06.785Z,101323
2018-02-09T12:58:35.254Z,101322
2018-02-09T13:01:03.512Z,101323
2018-02-09T13:03:31.741Z,101314
2018-02-09T13:05:59.988Z,101310
2018-02-09T13:08:28.244Z,101311
2018-02-09T13:10:56.458Z,101318
2018-02-09T13:13:24.690Z,101321
2018-02-09T13:15:52.951Z,101309
2018-02-09T13:18:39.695Z,101306
2018-02-09T13:21:07.899Z,101307
2018-02-09T13:23:55.015Z,101307
2018-02-09T13:26:23.226Z,101311
2018-02-09T13:28:59.995Z,101307
2018-02-09T13:31:28.269Z,101309
2018-02-09T13:33:57.197Z,101295
2018-02-09T13:36:43.150Z,101300
2018-02-09T13:39:11.499Z,101299
2018-02-09T13:41:39.727Z,101298
2018-02-09T13:44:08.044Z,101306
2018-02-09T13:46:36.299Z,101294
2018-02-09T13:49:04.528Z,101302
2018-02-09T13:51:34.348Z,101300
2018-02-09T13:54:21.986Z,101293
2018-02-09T13:56:50.260Z,101304
2018-02-09T13:59:18.524Z,101295
2018-02-09T14:01:46.763Z,101289
2018-02-09T14:04:15.002Z,101297
2018-02-09T14:06:43.301Z,101299
2018-02-09T14:09:11.500Z,101298
2018-02-09T14:11:39.715Z,101300
2018-02-09T14:14:07.986Z,101296
2018-02-09T14:16:36.219Z,101288
2018-02-09T14:19:04.456Z,101291
2018-02-09T14:21:32.758Z,101284
2018-02-09T14:24:01.062Z,101283
2018-02-09T14:26:30.000Z,101280
2018-02-09T14:28:58.223Z,101281
2018-02-09T14:31:27.229Z,101279
2018-02-09T14:33:55.424Z,101272
2018-02-09T14:36:23.633Z,101262
2018-02-09T14:38:51.889Z,101275
2018-02-09T14:41:20.096Z,101271
2018-02-09T14:43:48.292Z,101271
2018-02-09T14:46:17.775Z,101270
2018-02-09T14:48:47.855Z,101269
2018-02-09T14:51:16.633Z,101270
2018-02-09T14:53:46.276Z,101274
2018-02-09T14:56:14.532Z,101268
2018-02-09T14:58:42.861Z,101270
2018-02-09T15:01:11.158Z,101265
2018-02-09T15:03:39.404Z,101262
2018-02-09T15:06:09.568Z,101271
2018-02-09T15:08:38.754Z,101266
2018-02-09T15:11:07.928Z,101266
2018-02-09T15:13:36.199Z,101267
2018-02-09T15:16:04.502Z,101263
2018-02-09T15:18:32.751Z,101263
2018-02-09T15:21:01.079Z,101261
2018-02-09T15:23:29.262Z,101267
2018-02-09T15:25:58.483Z,101271
2018-02-09T15:28:26.839Z,101269
2018-02-09T15:30:55.178Z,101273
2018-02-09T15:33:23.498Z,101266
2018-02-09T15:35:51.701Z,101268
2018-02-09T15:38:19.911Z,101265
2018-02-09T15:40:48.916Z,101267
2018-02-09T15:43:17.282Z,101265
2018-02-09T15:45:45.572Z,101264
2018-02-09T15:48:13.842Z,101267
2018-02-09T15:50:42.149Z,101265
2018-02-09T15:53:10.390Z,101263
2018-02-09T15:55:38.663Z,101257
2018-02-09T15:58:06.941Z,101269
2018-02-09T16:00:35.164Z,101273
2018-02-09T16:03:03.524Z,101271
2018-02-09T16:05:31.872Z,101272
2018-02-09T16:08:00.214Z,101274
2018-02-09T16:10:28.537Z,101274
2018-02-09T16:12:56.763Z,101278
2018-02-09T16:15:24.970Z,101281
2018-02-09T16:17:54.172Z,101281
2018-02-09T16:20:22.487Z,101282
2018-02-09T16:22:51.539Z,101281
2018-02-09T16:25:19.822Z,101286
2018-02-09T16:27:48.169Z,101280
2018-02-09T16:30:16.431Z,101286
2018-02-09T16:32:44.754Z,101291
2018-02-09T16:35:12.942Z,101288
2018-02-09T16:37:41.308Z,101291
2018-02-09T16:40:09.533Z,101292
2018-02-09T16:42:38.659Z,101298
2018-02-09T16:45:07.067Z,101291
2018-02-09T16:47:35.278Z,101293
2018-02-09T16:50:03.497Z,101296
2018-02-09T16:52:31.733Z,101296
2018-02-09T16:55:00.101Z,101296
2018-02-09T16:57:28.392Z,101295
2018-02-09T16:59:56.604Z,101299
2018-02-09T17:02:24.918Z,101298
2018-02-09T17:04:53.106Z,101297
2018-02-09T17:07:21.416Z,101298
2018-02-09T17:09:49.631Z,101297
2018-02-09T17:12:18.619Z,101294
2018-02-09T17:14:46.822Z,101298
2018-02-09T17:17:15.015Z,101290
2018-02-09T17:19:43.320Z,101299
2018-02-09T17:22:11.524Z,101295
2018-02-09T17:24:40.590Z,101301
2018-02-09T17:27:08.826Z,101301
2018-02-09T17:29:37.048Z,101303
2018-02-09T17:32:05.308Z,101298
2018-02-09T17:34:33.500Z,101301
2018-02-09T17:37:01.755Z,101301
2018-02-09T17:39:29.948Z,101312
2018-02-09T17:41:58.186Z,101311
2018-02-09T17:44:26.362Z,101313
2018-02-09T17:46:54.592Z,101311
2018-02-09T17:49:23.554Z,101320
2018-02-09T17:51:51.738Z,101320
2018-02-09T17:54:19.927Z,101322
2018-02-09T17:56:48.896Z,101324
2018-02-09T17:59:17.190Z,101321
2018-02-09T18:01:45.401Z,101334
2018-02-09T18:04:14.135Z,101326
2018-02-09T18:06:42.361Z,101328
2018-02-09T18:09:10.548Z,101329
2018-02-09T18:11:38.747Z,101330
2018-02-09T18:14:07.001Z,101335
2018-02-09T18:16:35.277Z,101338
2018-02-09T18:19:04.212Z,101331
2018-02-09T18:21:33.211Z,101341
2018-02-09T18:24:01.528Z,101344
2018-02-09T18:26:30.590Z,101347
2018-02-09T18:28:58.844Z,101355
2018-02-09T18:31:27.030Z,101358
2018-02-09T18:33:55.255Z,101366
2018-02-09T18:36:23.557Z,101367
2018-02-09T18:38:51.784Z,101364
2018-02-09T18:41:20.128Z,101362
2018-02-09T18:43:48.346Z,101369
2018-02-09T18:46:19.032Z,101364
2018-02-09T18:48:52.645Z,101365
2018-02-09T18:51:20.862Z,101367
2018-02-09T18:53:49.074Z,101361
2018-02-09T18:56:17.271Z,101368
2018-02-09T18:58:47.422Z,101360
2018-02-09T19:01:15.736Z,101366
2018-02-09T19:03:44.698Z,101361
2018-02-09T19:06:12.944Z,101364
2018-02-09T19:08:41.178Z,101361
2018-02-09T19:11:09.373Z,101362
2018-02-09T19:13:37.591Z,101357
2018-02-09T19:16:05.780Z,101359
2018-02-09T19:18:33.998Z,101364
2018-02-09T19:21:02.272Z,101357
2018-02-09T19:23:31.757Z,101347
2018-02-09T19:26:00.779Z,101356
2018-02-09T19:28:29.054Z,101360
2018-02-09T19:30:57.339Z,101356
2018-02-09T19:33:25.723Z,101356
2018-02-09T19:35:54.137Z,101348
2018-02-09T19:38:23.277Z,101355
2018-02-09T19:40:52.654Z,101366
2018-02-09T19:43:21.681Z,101351
2018-02-09T19:45:50.058Z,101358
2018-02-09T19:48:18.422Z,101358
2018-02-09T19:50:46.746Z,101359
2018-02-09T19:53:16.227Z,101364
2018-02-09T19:55:44.593Z,101363
2018-02-09T19:58:13.079Z,101360
2018-02-09T20:00:42.408Z,101359
2018-02-09T20:03:11.556Z,101364
2018-02-09T20:05:40.768Z,101364
2018-02-09T20:08:09.102Z,101360
2018-02-09T20:10:37.475Z,101361
2018-02-09T20:13:05.753Z,101362
2018-02-09T20:15:34.087Z,101365
2018-02-09T20:18:02.604Z,101364
2018-02-09T20:20:31.680Z,101365
2018-02-09T20:23:00.740Z,101365
2018-02-09T20:25:29.118Z,101364
2018-02-09T20:27:58.399Z,101363
2018-02-09T20:30:45.158Z,101361
2018-02-09T20:50:49.179Z,101372
2018-02-09T20:53:42.566Z,101369
2018-02-09T23:02:16.604Z,101403
2018-02-09T23:12:10.931Z,101397
